Time;durP1;ratioP1;P1;durP2;ratioP2;P2;SDS_P1;SDS_P2;PMS_P1;PMS_P2;Temp;Humidity;BMP_temperature;BMP_pressure;BME280_temperature;BME280_humidity;BME280_pressure;Samples;Min_cycle;Max_cycle;Signal;HPM_P1;HPM_P2
2021/12/06 00:02:25;;;;;;;20.83;18.93;;;2.40;99.90;;;;;;5054160;28;20441;-76
2021/12/06 00:04:52;;;;;;;21.57;19.50;;;2.40;99.90;;;;;;5054320;28;20198;-76
2021/12/06 00:07:22;;;;;;;22.13;19.77;;;2.40;99.90;;;;;;5053459;28;20530;-76
2021/12/06 00:09:49;;;;;;;19.93;18.23;;;2.40;99.90;;;;;;5053554;28;20918;-76
2021/12/06 00:12:17;;;;;;;21.30;19.50;;;2.40;99.90;;;;;;5053930;28;20471;-76
2021/12/06 00:14:45;;;;;;;22.20;19.90;;;2.50;99.90;;;;;;5052793;28;20550;-76
2021/12/06 00:17:19;;;;;;;20.67;18.87;;;2.40;99.90;;;;;;5053794;28;20491;-76
2021/12/06 00:19:46;;;;;;;21.20;19.30;;;2.40;99.90;;;;;;5053883;28;20434;-76
2021/12/06 00:22:15;;;;;;;21.03;19.17;;;2.50;99.90;;;;;;5052561;28;20269;-76
2021/12/06 00:24:42;;;;;;;22.23;20.03;;;2.50;99.90;;;;;;5053880;28;20430;-76
2021/12/06 00:27:09;;;;;;;21.13;18.93;;;2.50;99.90;;;;;;5052235;28;20469;-76
2021/12/06 00:29:38;;;;;;;22.63;20.37;;;2.50;99.90;;;;;;5052509;28;20887;-76
2021/12/06 00:32:05;;;;;;;22.00;20.10;;;2.40;99.90;;;;;;5052510;28;20827;-76
2021/12/06 00:34:34;;;;;;;22.10;19.90;;;2.40;99.90;;;;;;5053477;28;20445;-75
2021/12/06 00:37:17;;;;;;;22.00;20.00;;;2.40;99.90;;;;;;5053425;28;20219;-76
2021/12/06 00:39:45;;;;;;;21.20;19.10;;;2.40;99.90;;;;;;5046440;28;20344;-76
2021/12/06 00:42:12;;;;;;;22.90;20.57;;;2.40;99.90;;;;;;5052305;28;20450;-76
2021/12/06 00:44:40;;;;;;;21.33;19.47;;;2.40;99.90;;;;;;5052141;28;20496;-76
2021/12/06 00:47:07;;;;;;;20.90;19.20;;;2.40;99.90;;;;;;5053321;28;20203;-76
2021/12/06 00:49:34;;;;;;;21.60;19.57;;;2.40;99.90;;;;;;5052004;28;20222;-76
2021/12/06 00:52:02;;;;;;;20.97;19.27;;;2.50;99.90;;;;;;5051978;28;20202;-76
2021/12/06 00:54:34;;;;;;;20.97;19.27;;;2.40;99.90;;;;;;5060967;28;20861;-76
2021/12/06 00:57:01;;;;;;;21.07;19.17;;;2.40;99.90;;;;;;5053193;28;20446;-76
2021/12/06 00:59:28;;;;;;;21.03;19.23;;;2.40;99.90;;;;;;5044930;28;20456;-76
2021/12/06 01:01:57;;;;;;;20.60;18.70;;;2.40;99.90;;;;;;5051939;28;20466;-76
2021/12/06 01:04:24;;;;;;;20.83;19.13;;;2.40;99.90;;;;;;5051762;28;20672;-76
2021/12/06 01:06:51;;;;;;;21.40;19.30;;;2.40;99.90;;;;;;5051658;28;20480;-76
2021/12/06 01:09:18;;;;;;;20.10;18.40;;;2.40;99.90;;;;;;5051461;28;20484;-76
2021/12/06 01:11:46;;;;;;;22.03;20.00;;;2.30;99.90;;;;;;5051620;28;20528;-76
2021/12/06 01:14:13;;;;;;;20.23;18.43;;;2.30;99.90;;;;;;5045579;28;20460;-76
2021/12/06 01:16:40;;;;;;;22.13;19.87;;;2.30;99.90;;;;;;5051409;28;20464;-76
2021/12/06 01:19:09;;;;;;;20.77;19.07;;;2.30;99.90;;;;;;5051391;28;20842;-76
2021/12/06 01:21:45;;;;;;;22.00;19.77;;;2.30;99.90;;;;;;5037065;28;20490;-76
2021/12/06 01:24:13;;;;;;;22.80;20.73;;;2.30;99.90;;;;;;5049288;28;20452;-75
2021/12/06 01:27:02;;;;;;;22.00;19.90;;;2.40;99.90;;;;;;5040449;28;20469;-76
2021/12/06 01:29:58;;;;;;;21.27;19.17;;;2.40;99.90;;;;;;5046562;28;21047;-76
2021/12/06 01:32:48;;;;;;;21.00;19.07;;;2.40;99.90;;;;;;5051409;28;20549;-76
2021/12/06 01:40:43;;;;;;;20.93;19.03;;;2.50;99.90;;;;;;5051058;28;20441;-76
2021/12/06 01:43:11;;;;;;;19.00;17.50;;;2.50;99.90;;;;;;5050954;28;20454;-76
2021/12/06 01:45:37;;;;;;;20.37;18.43;;;2.50;99.90;;;;;;5051011;28;20452;-76
2021/12/06 01:48:05;;;;;;;20.37;18.57;;;2.60;99.90;;;;;;5050650;28;20508;-76
2021/12/06 01:50:33;;;;;;;22.70;20.63;;;2.60;99.90;;;;;;5050851;28;20450;-76
2021/12/06 01:53:02;;;;;;;20.57;18.83;;;2.60;99.90;;;;;;5052692;28;20430;-76
2021/12/06 01:55:33;;;;;;;21.33;19.47;;;2.50;99.90;;;;;;5042876;28;20450;-76
2021/12/06 01:58:02;;;;;;;20.63;18.80;;;2.50;99.90;;;;;;5050588;28;20479;-76
2021/12/06 02:00:32;;;;;;;20.63;18.80;;;2.50;99.90;;;;;;5042991;28;20454;-76
2021/12/06 02:03:06;;;;;;;21.10;19.20;;;2.50;99.90;;;;;;5050852;28;20445;-76
2021/12/06 02:05:42;;;;;;;20.67;18.73;;;2.50;99.90;;;;;;5050831;28;20812;-76
2021/12/06 02:08:11;;;;;;;21.27;19.10;;;2.50;99.90;;;;;;5050033;28;20485;-76
2021/12/06 02:10:40;;;;;;;21.03;19.23;;;2.50;99.90;;;;;;5050633;28;20454;-76
2021/12/06 02:13:11;;;;;;;20.77;18.97;;;2.40;99.90;;;;;;5050534;28;20453;-76
2021/12/06 02:15:42;;;;;;;22.50;20.30;;;2.40;99.90;;;;;;5050581;28;20490;-76
2021/12/06 02:18:26;;;;;;;21.10;19.20;;;2.40;99.90;;;;;;5050329;28;20496;-76
2021/12/06 02:21:02;;;;;;;20.83;18.97;;;2.40;99.90;;;;;;5045949;28;20446;-76
2021/12/06 02:23:30;;;;;;;21.00;19.20;;;2.40;99.90;;;;;;5050135;28;20444;-76
2021/12/06 02:25:58;;;;;;;20.60;18.83;;;2.40;99.90;;;;;;5050466;28;20461;-76
2021/12/06 02:28:25;;;;;;;20.67;18.83;;;2.40;99.90;;;;;;5049925;28;20997;-76
2021/12/06 02:30:51;;;;;;;20.47;18.47;;;2.40;99.90;;;;;;5050469;28;21023;-76
2021/12/06 02:33:18;;;;;;;20.33;18.63;;;2.40;99.90;;;;;;5049951;28;20471;-76
2021/12/06 02:35:45;;;;;;;20.97;19.17;;;2.30;99.90;;;;;;5050528;28;20446;-76
2021/12/06 02:38:14;;;;;;;20.63;18.83;;;2.30;99.90;;;;;;5050407;28;21004;-76
2021/12/06 02:40:42;;;;;;;20.30;18.63;;;2.30;99.90;;;;;;5050226;28;20454;-76
2021/12/06 02:43:14;;;;;;;20.83;18.97;;;2.30;99.90;;;;;;5043866;28;20447;-76
2021/12/06 02:45:41;;;;;;;21.37;19.50;;;2.30;99.90;;;;;;5050132;28;20504;-76
2021/12/06 02:48:11;;;;;;;20.00;18.30;;;2.30;99.90;;;;;;5049980;28;20481;-76
2021/12/06 02:50:41;;;;;;;20.50;18.70;;;2.30;99.90;;;;;;5050377;28;20449;-76
2021/12/06 02:53:08;;;;;;;19.60;18.00;;;2.30;99.90;;;;;;5051537;28;20436;-76
2021/12/06 02:55:38;;;;;;;20.20;18.40;;;2.30;99.90;;;;;;5050126;28;20968;-76
2021/12/06 02:58:16;;;;;;;20.53;18.83;;;2.30;99.90;;;;;;5049582;28;20468;-76
2021/12/06 03:00:47;;;;;;;19.30;17.80;;;2.30;99.90;;;;;;5049984;28;20449;-76
2021/12/06 03:03:16;;;;;;;19.30;17.80;;;2.30;99.90;;;;;;5050035;28;20977;-76
2021/12/06 03:05:44;;;;;;;19.83;18.20;;;2.30;99.90;;;;;;5049905;28;20444;-76
2021/12/06 03:08:11;;;;;;;20.13;18.30;;;2.30;99.90;;;;;;5050757;28;20477;-76
2021/12/06 03:10:40;;;;;;;18.70;17.03;;;2.30;99.90;;;;;;5049761;28;20440;-76
2021/12/06 03:13:07;;;;;;;19.43;17.50;;;2.30;99.90;;;;;;5049908;28;20961;-76
2021/12/06 03:15:34;;;;;;;19.67;17.97;;;2.30;99.90;;;;;;5050021;28;20453;-76
2021/12/06 03:18:01;;;;;;;20.80;19.10;;;2.30;99.90;;;;;;5049510;28;20917;-76
2021/12/06 03:20:28;;;;;;;19.93;18.17;;;2.30;99.90;;;;;;5041722;28;20821;-76
2021/12/06 03:22:55;;;;;;;20.23;18.37;;;2.30;99.90;;;;;;5051168;28;20452;-76
2021/12/06 03:25:22;;;;;;;21.27;19.27;;;2.30;99.90;;;;;;5049529;28;20852;-76
2021/12/06 03:27:51;;;;;;;20.13;18.40;;;2.30;99.90;;;;;;5048938;28;20480;-76
2021/12/06 03:30:18;;;;;;;20.13;18.43;;;2.30;99.90;;;;;;5044602;28;20442;-76
2021/12/06 03:32:46;;;;;;;20.40;18.60;;;2.30;99.90;;;;;;5049772;28;20545;-76
2021/12/06 03:35:14;;;;;;;20.90;19.10;;;2.20;99.90;;;;;;5049720;28;20482;-76
2021/12/06 03:37:42;;;;;;;19.97;18.37;;;2.20;99.90;;;;;;5049627;28;20470;-76
2021/12/06 03:40:10;;;;;;;20.40;18.60;;;2.20;99.90;;;;;;5052460;28;20442;-76
2021/12/06 03:42:38;;;;;;;20.93;19.23;;;2.20;99.90;;;;;;5048943;28;20551;-76
2021/12/06 03:45:08;;;;;;;22.57;20.57;;;2.20;99.90;;;;;;5054572;28;20442;-76
2021/12/06 03:47:37;;;;;;;22.20;20.20;;;2.30;99.90;;;;;;5053296;28;20852;-77
2021/12/06 03:50:07;;;;;;;21.67;19.87;;;2.20;99.90;;;;;;5053002;28;20526;-76
2021/12/06 03:52:35;;;;;;;20.70;18.90;;;2.20;99.90;;;;;;5045733;28;20901;-76
2021/12/06 03:55:04;;;;;;;22.67;20.80;;;2.30;99.90;;;;;;5053127;28;20954;-77
2021/12/06 03:57:31;;;;;;;20.03;18.33;;;2.30;99.90;;;;;;5053192;28;20445;-77
2021/12/06 03:59:59;;;;;;;20.63;18.77;;;2.30;99.90;;;;;;5053394;28;20845;-77
2021/12/06 04:02:31;;;;;;;19.30;17.80;;;2.30;99.90;;;;;;5053093;28;20442;-77
2021/12/06 04:04:58;;;;;;;19.47;17.90;;;2.30;99.90;;;;;;5053865;28;20873;-77
2021/12/06 04:07:29;;;;;;;20.00;18.33;;;2.30;99.90;;;;;;5052922;28;20457;-76
2021/12/06 04:09:56;;;;;;;19.90;18.00;;;2.40;99.90;;;;;;5051893;28;20706;-76
2021/12/06 04:12:23;;;;;;;19.87;18.07;;;2.40;99.90;;;;;;5054046;28;20449;-75
2021/12/06 04:14:51;;;;;;;20.37;18.67;;;2.40;99.90;;;;;;5052456;28;20454;-75
2021/12/06 04:17:19;;;;;;;21.43;19.53;;;2.40;99.90;;;;;;5052565;28;20833;-74
2021/12/06 04:19:48;;;;;;;19.03;17.40;;;2.30;99.90;;;;;;5047270;28;20962;-76
2021/12/06 04:22:16;;;;;;;20.97;19.17;;;2.30;99.90;;;;;;5052668;28;20453;-75
2021/12/06 04:24:44;;;;;;;19.57;18.07;;;2.30;99.90;;;;;;5052316;28;20533;-76
2021/12/06 04:27:15;;;;;;;20.57;18.63;;;2.30;99.90;;;;;;5052255;28;20785;-76
2021/12/06 04:29:45;;;;;;;19.83;18.23;;;2.30;99.90;;;;;;5051764;28;20488;-76
2021/12/06 04:32:12;;;;;;;19.87;18.33;;;2.40;99.90;;;;;;5050712;28;20446;-76
2021/12/06 04:34:41;;;;;;;20.53;18.83;;;2.40;99.90;;;;;;5050624;28;20454;-75
2021/12/06 04:37:11;;;;;;;20.90;19.10;;;2.50;99.90;;;;;;5050210;28;20446;-75
2021/12/06 04:39:40;;;;;;;20.80;19.00;;;2.50;99.90;;;;;;5050505;28;20539;-76
2021/12/06 04:42:08;;;;;;;20.60;18.70;;;2.40;99.90;;;;;;5052083;28;20846;-76
2021/12/06 04:44:36;;;;;;;22.30;20.10;;;2.40;99.90;;;;;;5052319;28;20206;-76
2021/12/06 04:47:06;;;;;;;21.27;19.37;;;2.50;99.90;;;;;;5052034;28;20469;-75
2021/12/06 04:49:35;;;;;;;20.97;19.17;;;2.40;99.90;;;;;;5052150;28;21075;-76
2021/12/06 04:52:09;;;;;;;21.63;19.83;;;2.50;99.90;;;;;;5052135;28;20524;-76
2021/12/06 04:54:41;;;;;;;22.40;20.37;;;2.50;99.90;;;;;;5045182;28;20481;-75
2021/12/06 04:57:11;;;;;;;21.10;19.30;;;2.60;99.90;;;;;;5051605;28;21029;-75
2021/12/06 04:59:41;;;;;;;19.30;17.80;;;2.60;99.90;;;;;;5052187;28;20871;-76
2021/12/06 05:02:13;;;;;;;19.93;18.20;;;2.60;99.90;;;;;;5052082;28;20446;-75
2021/12/06 05:04:47;;;;;;;19.30;17.60;;;2.50;99.90;;;;;;5052165;28;20446;-75
2021/12/06 05:07:18;;;;;;;19.50;17.83;;;2.50;99.90;;;;;;5051582;28;20958;-76
2021/12/06 05:09:50;;;;;;;19.60;18.00;;;2.50;99.90;;;;;;5051633;28;20474;-75
2021/12/06 05:12:22;;;;;;;20.57;18.77;;;2.50;99.90;;;;;;5051760;28;20791;-75
2021/12/06 05:14:50;;;;;;;19.10;17.67;;;2.50;99.90;;;;;;5051808;28;20536;-75
2021/12/06 05:17:18;;;;;;;19.57;17.97;;;2.50;99.90;;;;;;5051548;28;20540;-76
2021/12/06 05:19:45;;;;;;;20.87;18.97;;;2.50;99.90;;;;;;5052789;28;20430;-74
2021/12/06 05:22:13;;;;;;;20.30;18.67;;;2.50;99.90;;;;;;5051458;28;20860;-75
2021/12/06 05:24:40;;;;;;;19.37;17.87;;;2.60;99.90;;;;;;5052766;28;20440;-75
2021/12/06 05:27:09;;;;;;;19.73;18.13;;;2.60;99.90;;;;;;5051227;28;20858;-75
2021/12/06 05:29:38;;;;;;;19.30;17.80;;;2.60;99.90;;;;;;5051418;28;20516;-75
2021/12/06 05:32:06;;;;;;;19.73;18.13;;;2.60;99.90;;;;;;5051511;28;20445;-75
2021/12/06 05:34:38;;;;;;;19.50;18.03;;;2.60;99.90;;;;;;5051256;28;20457;-75
2021/12/06 05:37:06;;;;;;;19.27;17.67;;;2.60;99.90;;;;;;5051019;28;20448;-75
2021/12/06 05:39:33;;;;;;;19.63;18.00;;;2.70;99.90;;;;;;5052379;28;20464;-75
2021/12/06 05:42:01;;;;;;;19.20;17.60;;;2.70;99.90;;;;;;5052506;28;20495;-76
2021/12/06 05:44:30;;;;;;;20.17;18.47;;;2.70;99.90;;;;;;5044339;28;20473;-75
2021/12/06 05:46:57;;;;;;;18.60;17.10;;;2.70;99.90;;;;;;5051980;28;20847;-75
2021/12/06 05:49:25;;;;;;;19.03;17.40;;;2.70;99.90;;;;;;5052217;28;20531;-75
2021/12/06 05:51:52;;;;;;;19.00;17.50;;;2.70;99.90;;;;;;5052161;28;20437;-75
2021/12/06 05:54:19;;;;;;;19.53;18.00;;;2.70;99.90;;;;;;5050982;28;20460;-75
2021/12/06 05:56:46;;;;;;;19.67;18.03;;;2.70;99.90;;;;;;5052218;28;20438;-75
2021/12/06 05:59:13;;;;;;;18.60;17.00;;;2.70;99.90;;;;;;5051948;28;20981;-75
2021/12/06 06:01:41;;;;;;;19.73;17.93;;;2.70;99.90;;;;;;5057582;28;20456;-75
2021/12/06 06:04:08;;;;;;;19.70;18.20;;;2.80;99.90;;;;;;5051916;28;20440;-75
2021/12/06 06:06:37;;;;;;;19.43;17.83;;;2.70;99.90;;;;;;5050471;28;20455;-75
2021/12/06 06:09:08;;;;;;;18.80;17.30;;;2.70;99.90;;;;;;5051084;28;20492;-75
2021/12/06 06:11:36;;;;;;;19.63;18.10;;;2.80;99.90;;;;;;5051742;28;20484;-76
2021/12/06 06:14:04;;;;;;;20.03;18.40;;;2.80;99.90;;;;;;5051620;28;20523;-75
2021/12/06 06:16:35;;;;;;;20.43;18.63;;;2.80;99.90;;;;;;5051508;28;20935;-75
2021/12/06 06:19:05;;;;;;;21.27;19.30;;;2.80;99.90;;;;;;5050613;28;20557;-76
2021/12/06 06:21:32;;;;;;;19.87;18.27;;;2.70;99.90;;;;;;5048580;28;20504;-75
2021/12/06 06:23:58;;;;;;;21.17;19.37;;;2.80;99.90;;;;;;5050552;28;20461;-76
2021/12/06 06:26:25;;;;;;;21.23;19.43;;;2.80;99.90;;;;;;5050060;28;21026;-75
2021/12/06 06:28:52;;;;;;;21.63;19.97;;;2.80;99.90;;;;;;5051463;28;20470;-75
2021/12/06 06:31:19;;;;;;;22.50;20.70;;;2.80;99.90;;;;;;5048124;28;20528;-76
2021/12/06 06:33:45;;;;;;;21.70;19.97;;;2.80;99.90;;;;;;5050308;28;20452;-75
2021/12/06 06:36:14;;;;;;;21.60;19.80;;;2.80;99.90;;;;;;5051645;28;20811;-75
2021/12/06 06:38:41;;;;;;;21.97;20.17;;;2.80;99.90;;;;;;5051275;28;21037;-75
2021/12/06 06:41:08;;;;;;;20.80;19.30;;;2.80;99.90;;;;;;5051468;28;20501;-75
2021/12/06 06:43:36;;;;;;;21.03;19.43;;;2.80;99.90;;;;;;5049950;28;20458;-75
2021/12/06 06:46:03;;;;;;;20.90;19.10;;;2.90;99.90;;;;;;5051358;28;20436;-75
2021/12/06 06:48:30;;;;;;;21.40;19.70;;;2.80;99.90;;;;;;5051198;28;20476;-76
2021/12/06 06:50:56;;;;;;;21.57;19.83;;;2.90;99.90;;;;;;5051402;28;20221;-75
2021/12/06 06:53:26;;;;;;;20.80;19.20;;;2.90;99.90;;;;;;5049933;28;20519;-76
2021/12/06 06:55:54;;;;;;;20.47;18.87;;;2.90;99.90;;;;;;5051170;28;20491;-76
2021/12/06 06:58:21;;;;;;;19.37;17.97;;;2.90;99.90;;;;;;5049610;28;20473;-75
2021/12/06 07:00:48;;;;;;;20.93;19.20;;;2.90;99.90;;;;;;5051164;28;20855;-75
2021/12/06 07:03:15;;;;;;;19.83;18.33;;;2.90;99.90;;;;;;5051155;28;20528;-76
2021/12/06 07:05:42;;;;;;;20.13;18.53;;;2.90;99.90;;;;;;5046292;28;20966;-75
2021/12/06 07:08:09;;;;;;;21.13;19.33;;;2.90;99.90;;;;;;5048231;28;20457;-75
2021/12/06 07:10:37;;;;;;;20.53;18.73;;;2.90;99.90;;;;;;5051108;28;20481;-75
2021/12/06 07:13:08;;;;;;;20.00;18.50;;;2.90;99.90;;;;;;5049884;28;20484;-76
2021/12/06 07:15:36;;;;;;;20.23;18.63;;;3.00;99.90;;;;;;5051298;28;20436;-75
2021/12/06 07:18:03;;;;;;;20.00;18.40;;;3.00;99.90;;;;;;5049259;28;20223;-75
2021/12/06 07:20:32;;;;;;;19.87;18.33;;;3.00;99.90;;;;;;5054304;28;20438;-75
2021/12/06 07:22:59;;;;;;;19.93;18.23;;;3.00;99.90;;;;;;5055124;28;20445;-75
2021/12/06 07:25:26;;;;;;;20.20;18.50;;;3.00;99.90;;;;;;5058600;28;20191;-75
2021/12/06 07:27:54;;;;;;;20.17;18.57;;;3.00;99.90;;;;;;5054681;28;20458;-76
2021/12/06 07:30:22;;;;;;;20.67;18.87;;;3.10;99.90;;;;;;5054911;28;20269;-75
2021/12/06 07:32:50;;;;;;;20.03;18.33;;;3.00;99.90;;;;;;5054943;28;20430;-75
2021/12/06 07:35:17;;;;;;;21.00;19.30;;;3.00;99.90;;;;;;5054714;28;20195;-76
2021/12/06 07:37:44;;;;;;;21.03;19.33;;;3.00;99.90;;;;;;5054535;28;20512;-76
2021/12/06 07:40:15;;;;;;;20.87;19.10;;;3.10;99.90;;;;;;5053465;28;20249;-75
2021/12/06 07:42:42;;;;;;;19.33;17.93;;;3.10;99.90;;;;;;5054873;28;20203;-76
2021/12/06 07:45:15;;;;;;;19.77;18.27;;;3.10;99.90;;;;;;5054721;28;20202;-75
2021/12/06 07:47:42;;;;;;;20.20;18.60;;;3.10;99.90;;;;;;5054354;28;20518;-76
2021/12/06 07:50:12;;;;;;;20.63;18.93;;;3.10;99.90;;;;;;5054458;28;20215;-75
2021/12/06 07:52:40;;;;;;;20.67;18.83;;;3.10;99.90;;;;;;5054427;28;20441;-75
2021/12/06 07:55:10;;;;;;;19.70;18.20;;;3.10;99.90;;;;;;5053165;28;20203;-75
2021/12/06 07:57:37;;;;;;;20.83;19.03;;;3.10;99.90;;;;;;5054141;28;20511;-76
2021/12/06 08:00:07;;;;;;;21.20;19.33;;;3.10;99.90;;;;;;5054404;28;20671;-75
2021/12/06 08:02:37;;;;;;;19.43;18.00;;;3.20;99.90;;;;;;5054368;28;20931;-75
2021/12/06 08:07:45;;;;;;;18.87;17.27;;;3.20;99.90;;;;;;5053881;28;20476;-76
2021/12/06 08:10:12;;;;;;;18.03;16.53;;;3.30;99.90;;;;;;5054133;28;20477;-75
2021/12/06 08:12:39;;;;;;;19.47;17.77;;;3.30;99.90;;;;;;5053024;28;20608;-76
2021/12/06 08:15:08;;;;;;;19.40;17.80;;;3.30;99.90;;;;;;5052830;28;20642;-75
2021/12/06 08:17:36;;;;;;;18.60;17.03;;;3.30;99.90;;;;;;5053934;28;20719;-75
2021/12/06 08:20:06;;;;;;;17.97;16.40;;;3.30;99.90;;;;;;5053999;28;20430;-75
2021/12/06 08:22:33;;;;;;;17.80;16.37;;;3.30;99.90;;;;;;5054130;28;20443;-75
2021/12/06 08:25:00;;;;;;;18.90;17.17;;;3.40;99.90;;;;;;5053951;28;20196;-75
2021/12/06 08:27:27;;;;;;;20.60;18.80;;;3.40;99.90;;;;;;5052195;28;20822;-75
2021/12/06 08:29:54;;;;;;;19.40;17.70;;;3.40;99.90;;;;;;5053721;28;20734;-76
2021/12/06 08:32:21;;;;;;;19.60;17.93;;;3.40;99.90;;;;;;5053180;28;20873;-76
2021/12/06 08:34:50;;;;;;;20.23;18.53;;;3.50;99.90;;;;;;5053743;28;20445;-77
2021/12/06 08:37:17;;;;;;;19.47;17.83;;;3.50;99.90;;;;;;5052113;28;20445;-75
2021/12/06 08:39:44;;;;;;;18.67;17.27;;;3.50;99.90;;;;;;5052241;28;20565;-76
2021/12/06 08:42:11;;;;;;;19.50;17.50;;;3.50;99.90;;;;;;5053650;28;20938;-75
2021/12/06 08:44:38;;;;;;;19.63;18.03;;;3.60;99.90;;;;;;5053485;28;20191;-75
2021/12/06 08:47:05;;;;;;;17.90;16.50;;;3.60;99.90;;;;;;5053339;28;20442;-75
2021/12/06 08:49:32;;;;;;;18.20;16.80;;;3.60;99.90;;;;;;5053264;28;20281;-76
2021/12/06 08:52:01;;;;;;;20.00;18.50;;;3.60;99.90;;;;;;5052248;28;20625;-75
2021/12/06 08:54:29;;;;;;;18.53;17.13;;;3.60;99.90;;;;;;5045235;28;20199;-75
2021/12/06 08:56:57;;;;;;;19.50;17.90;;;3.70;99.90;;;;;;5053185;28;20261;-76
2021/12/06 08:59:25;;;;;;;19.47;17.87;;;3.70;99.90;;;;;;5053279;28;20511;-75
2021/12/06 09:01:54;;;;;;;18.63;17.23;;;3.70;99.90;;;;;;5052067;28;20214;-76
2021/12/06 09:04:21;;;;;;;19.13;17.70;;;3.80;99.90;;;;;;5053169;28;20234;-75
2021/12/06 09:06:52;;;;;;;20.63;19.13;;;3.80;99.90;;;;;;5051618;28;20245;-76
2021/12/06 09:09:21;;;;;;;19.70;18.00;;;3.90;99.90;;;;;;5054008;28;20648;-75
2021/12/06 09:11:49;;;;;;;19.33;17.67;;;3.90;99.90;;;;;;5051768;28;20215;-76
2021/12/06 09:14:18;;;;;;;22.33;20.67;;;3.90;99.90;;;;;;5051651;28;20250;-76
2021/12/06 09:16:46;;;;;;;21.93;19.80;;;3.90;99.90;;;;;;5051544;28;20449;-75
2021/12/06 09:19:15;;;;;;;25.67;23.77;;;3.90;99.90;;;;;;5052783;28;20215;-75
2021/12/06 09:21:43;;;;;;;20.47;18.53;;;4.00;99.90;;;;;;5052886;28;20206;-75
2021/12/06 09:24:14;;;;;;;20.57;18.97;;;4.00;99.90;;;;;;5052720;28;20545;-75
2021/12/06 09:26:43;;;;;;;19.37;17.73;;;4.10;99.90;;;;;;5051336;28;20237;-76
2021/12/06 09:29:10;;;;;;;19.57;17.90;;;4.20;99.90;;;;;;5052513;28;20207;-76
2021/12/06 09:31:37;;;;;;;18.87;17.37;;;4.20;99.90;;;;;;5050895;28;20489;-76
2021/12/06 09:34:04;;;;;;;19.73;18.17;;;4.20;99.90;;;;;;5051982;28;20195;-75
2021/12/06 09:36:32;;;;;;;18.53;17.13;;;4.20;99.90;;;;;;5051216;28;20248;-75
2021/12/06 09:39:00;;;;;;;19.80;18.30;;;4.30;99.90;;;;;;5052406;28;20222;-75
2021/12/06 09:41:27;;;;;;;17.13;15.57;;;4.30;99.90;;;;;;5051164;28;20191;-75
2021/12/06 09:44:00;;;;;;;10.00;8.83;;;4.40;99.90;;;;;;5050636;28;20219;-78
2021/12/06 09:46:33;;;;;;;9.93;8.60;;;4.40;99.90;;;;;;5050747;28;20630;-75
2021/12/06 09:49:03;;;;;;;11.73;9.03;;;4.50;99.90;;;;;;5051173;28;20634;-76
2021/12/06 09:51:30;;;;;;;11.67;9.17;;;4.60;99.90;;;;;;5043068;28;20222;-76
2021/12/06 09:53:59;;;;;;;10.03;8.30;;;4.60;99.90;;;;;;5051058;28;20659;-76
2021/12/06 09:56:29;;;;;;;11.73;8.70;;;4.70;99.90;;;;;;5050703;28;20234;-75
2021/12/06 09:58:59;;;;;;;9.50;8.50;;;4.80;99.90;;;;;;5050847;28;20703;-76
2021/12/06 10:01:29;;;;;;;10.00;8.77;;;4.80;99.90;;;;;;5051946;28;20237;-75
2021/12/06 10:03:58;;;;;;;11.50;9.37;;;4.80;99.90;;;;;;5052036;28;20328;-75
2021/12/06 10:06:27;;;;;;;19.13;17.43;;;4.80;99.90;;;;;;5051661;28;20203;-75
2021/12/06 10:08:55;;;;;;;18.60;17.00;;;4.80;99.90;;;;;;5050488;28;20318;-76
2021/12/06 10:11:25;;;;;;;18.77;17.17;;;4.80;99.90;;;;;;5051561;28;20634;-76
2021/12/06 10:13:53;;;;;;;19.20;17.60;;;4.80;99.90;;;;;;5050633;28;20664;-76
2021/12/06 10:16:23;;;;;;;19.13;17.33;;;4.80;99.90;;;;;;5051510;28;20738;-76
2021/12/06 10:18:50;;;;;;;20.37;18.57;;;4.70;99.90;;;;;;5051706;28;20298;-76
2021/12/06 10:21:18;;;;;;;19.73;18.13;;;4.70;99.90;;;;;;5051648;28;20191;-76
2021/12/06 10:23:44;;;;;;;20.07;18.40;;;4.70;99.90;;;;;;5051634;28;20195;-76
2021/12/06 10:26:14;;;;;;;14.47;11.83;;;4.70;99.90;;;;;;5045153;28;20199;-76
2021/12/06 10:28:43;;;;;;;17.20;15.77;;;4.60;99.90;;;;;;5050127;28;20700;-76
2021/12/06 10:31:13;;;;;;;12.93;11.30;;;4.60;99.90;;;;;;5050106;28;20227;-76
2021/12/06 10:33:45;;;;;;;16.23;12.50;;;4.60;99.90;;;;;;5051601;28;20199;-76
2021/12/06 10:36:15;;;;;;;19.40;17.60;;;4.50;99.90;;;;;;5049720;28;20734;-76
2021/12/06 10:38:44;;;;;;;18.13;16.27;;;4.50;99.90;;;;;;5051378;28;20211;-76
2021/12/06 10:41:13;;;;;;;17.40;15.67;;;4.50;99.90;;;;;;5050266;28;20199;-76
2021/12/06 10:43:41;;;;;;;19.73;17.83;;;4.50;99.90;;;;;;5050179;28;20253;-76
2021/12/06 10:46:09;;;;;;;18.03;13.33;;;4.50;99.90;;;;;;5051426;28;20619;-75
2021/12/06 10:48:37;;;;;;;18.33;11.73;;;4.50;99.90;;;;;;5051419;28;20257;-76
2021/12/06 10:51:11;;;;;;;15.53;10.47;;;4.50;99.90;;;;;;5051093;28;20214;-76
2021/12/06 10:53:43;;;;;;;17.17;15.67;;;4.60;99.90;;;;;;5051268;28;20245;-75
2021/12/06 10:56:17;;;;;;;16.77;15.07;;;4.70;99.90;;;;;;5050131;28;20203;-76
2021/12/06 10:58:45;;;;;;;17.90;16.13;;;4.70;99.90;;;;;;5050069;28;20218;-75
2021/12/06 11:01:14;;;;;;;14.67;11.13;;;4.80;99.90;;;;;;5051270;28;20222;-76
2021/12/06 11:03:45;;;;;;;14.57;13.10;;;4.90;99.90;;;;;;5051323;28;20202;-76
2021/12/06 11:06:19;;;;;;;20.10;18.40;;;4.90;99.90;;;;;;5051324;28;20664;-75
2021/12/06 11:08:48;;;;;;;18.10;16.50;;;5.00;99.90;;;;;;5050930;28;20223;-76
2021/12/06 11:11:17;;;;;;;19.87;18.07;;;5.30;99.90;;;;;;5051180;28;20689;-76
2021/12/06 11:13:46;;;;;;;20.80;18.90;;;5.40;99.90;;;;;;5049639;28;20195;-75
2021/12/06 11:16:16;;;;;;;20.53;18.70;;;5.60;99.90;;;;;;5051013;28;20253;-76
2021/12/06 11:18:50;;;;;;;21.53;19.47;;;5.70;99.90;;;;;;5050594;28;20214;-75
2021/12/06 11:21:31;;;;;;;12.40;10.37;;;5.80;99.90;;;;;;5050951;28;20192;-76
2021/12/06 11:24:17;;;;;;;14.37;11.33;;;6.00;99.90;;;;;;5049843;28;20269;-76
2021/12/06 11:26:48;;;;;;;19.53;17.73;;;5.90;99.90;;;;;;5044815;28;20253;-76
2021/12/06 11:29:20;;;;;;;17.20;11.60;;;5.90;99.90;;;;;;5049945;28;20211;-75
2021/12/06 11:31:58;;;;;;;16.13;13.83;;;5.90;99.90;;;;;;5050927;28;20629;-76
2021/12/06 11:34:31;;;;;;;12.63;9.90;;;5.80;99.90;;;;;;5051154;28;20199;-76
2021/12/06 11:36:59;;;;;;;14.67;10.93;;;5.90;99.90;;;;;;5049026;28;20628;-76
2021/12/06 11:39:28;;;;;;;17.73;15.93;;;6.00;99.90;;;;;;5050820;28;20754;-76
2021/12/06 11:41:57;;;;;;;14.00;10.97;;;5.90;99.90;;;;;;5050880;28;20250;-76
2021/12/06 11:44:35;;;;;;;13.47;11.07;;;5.90;99.90;;;;;;5050780;28;20691;-76
2021/12/06 11:47:06;;;;;;;14.50;11.37;;;6.00;99.90;;;;;;5050752;28;20191;-76
2021/12/06 11:49:37;;;;;;;14.07;10.53;;;5.90;99.90;;;;;;5043766;28;20211;-76
2021/12/06 11:52:07;;;;;;;14.40;10.97;;;5.80;99.90;;;;;;5049527;28;20632;-76
2021/12/06 11:54:46;;;;;;;13.97;10.70;;;5.80;99.90;;;;;;5050940;28;20196;-76
2021/12/06 11:57:16;;;;;;;18.50;16.80;;;5.80;99.90;;;;;;5049348;28;20257;-76
2021/12/06 11:59:56;;;;;;;12.20;10.37;;;5.70;99.90;;;;;;5050751;28;20261;-76
2021/12/06 12:02:37;;;;;;;12.67;11.43;;;5.60;99.90;;;;;;5050485;28;20233;-76
2021/12/06 12:05:20;;;;;;;17.03;15.20;;;5.50;99.90;;;;;;5049339;28;20204;-76
2021/12/06 12:07:56;;;;;;;12.07;10.77;;;5.40;99.90;;;;;;5053628;28;20226;-76
2021/12/06 12:10:39;;;;;;;13.00;10.87;;;5.40;99.90;;;;;;5054309;28;20199;-76
2021/12/06 12:13:09;;;;;;;16.97;15.57;;;5.40;99.90;;;;;;5053905;28;20249;-76
2021/12/06 12:15:37;;;;;;;14.53;13.10;;;5.60;99.90;;;;;;5052824;28;20210;-76
2021/12/06 12:18:04;;;;;;;13.30;12.00;;;5.80;99.90;;;;;;5053905;28;20257;-76
2021/12/06 12:20:35;;;;;;;13.67;12.57;;;5.70;99.90;;;;;;5053913;28;20620;-75
2021/12/06 12:23:08;;;;;;;16.53;11.90;;;5.90;99.90;;;;;;5054797;28;20532;-76
2021/12/06 12:25:42;;;;;;;8.53;7.30;;;5.90;99.90;;;;;;5047112;28;20191;-76
2021/12/06 12:28:18;;;;;;;7.80;6.93;;;5.90;99.90;;;;;;5053501;28;20633;-76
2021/12/06 12:30:45;;;;;;;8.50;7.27;;;5.90;99.90;;;;;;5053800;28;20227;-76
2021/12/06 12:33:13;;;;;;;7.90;7.10;;;5.90;99.90;;;;;;5052446;28;20200;-76
2021/12/06 12:35:42;;;;;;;9.07;8.00;;;5.90;99.90;;;;;;5053386;28;20200;-75
2021/12/06 12:38:13;;;;;;;8.37;7.67;;;5.90;99.90;;;;;;5053200;28;20224;-76
2021/12/06 12:40:43;;;;;;;8.10;7.33;;;5.90;99.90;;;;;;5052378;28;20203;-76
2021/12/06 12:43:13;;;;;;;7.30;6.47;;;5.90;99.90;;;;;;5053591;28;20727;-76
2021/12/06 12:45:42;;;;;;;6.60;5.77;;;6.00;99.90;;;;;;5052192;28;20200;-75
2021/12/06 12:48:11;;;;;;;9.30;6.10;;;6.00;99.90;;;;;;5051867;28;20274;-75
2021/12/06 12:50:38;;;;;;;6.73;6.07;;;6.00;99.90;;;;;;5052183;28;20201;-76
2021/12/06 12:53:10;;;;;;;7.33;6.57;;;5.90;99.90;;;;;;5053407;28;20254;-75
2021/12/06 12:55:45;;;;;;;6.90;6.20;;;5.80;99.90;;;;;;5052097;28;20606;-76
2021/12/06 12:58:14;;;;;;;8.10;7.30;;;5.90;99.90;;;;;;5051635;28;20281;-76